Time;durP1;ratioP1;P1;durP2;ratioP2;P2;SDS_P1;SDS_P2;PMS_P1;PMS_P2;Temp;Humidity;BMP_temperature;BMP_pressure;BME280_temperature;BME280_humidity;BME280_pressure;Samples;Min_cycle;Max_cycle;Signal;HPM_P1;HPM_P2
2022/11/28 00:00:55;;;;;;;3.97;3.57;;;5.20;99.90;;;;;;5051973;28;20164;-53
2022/11/28 00:03:23;;;;;;;4.30;3.90;;;5.20;99.90;;;;;;5051373;28;20159;-49
2022/11/28 00:05:49;;;;;;;4.10;3.70;;;5.10;99.90;;;;;;5051442;28;20225;-51
2022/11/28 00:08:14;;;;;;;4.10;3.80;;;5.00;99.90;;;;;;5050884;28;20616;-49
2022/11/28 00:10:40;;;;;;;4.53;4.13;;;4.90;99.90;;;;;;5051741;28;20622;-49
2022/11/28 00:13:06;;;;;;;3.97;3.57;;;4.90;99.90;;;;;;5051619;28;20174;-50
2022/11/28 00:15:32;;;;;;;4.47;4.07;;;4.80;99.90;;;;;;5051137;28;20777;-50
2022/11/28 00:17:57;;;;;;;4.57;4.17;;;4.60;99.90;;;;;;5051629;28;20241;-51
2022/11/28 00:20:23;;;;;;;3.70;3.40;;;4.50;99.90;;;;;;5051056;28;20175;-46
2022/11/28 00:22:48;;;;;;;25.53;4.63;;;4.50;99.90;;;;;;5051477;28;20517;-53
2022/11/28 00:25:14;;;;;;;79.70;9.10;;;4.60;99.90;;;;;;5050158;28;20286;-51
2022/11/28 00:27:40;;;;;;;44.23;6.50;;;4.40;99.90;;;;;;5051185;28;20240;-46
2022/11/28 00:30:06;;;;;;;4.40;4.00;;;4.30;99.90;;;;;;5051210;28;20270;-47
2022/11/28 00:32:32;;;;;;;64.33;6.63;;;4.20;99.90;;;;;;5051384;28;20180;-50
2022/11/28 00:34:57;;;;;;;3.80;3.50;;;4.20;99.90;;;;;;5058143;22;20684;-55
2022/11/28 00:37:23;;;;;;;3.90;3.60;;;4.20;99.90;;;;;;5030492;28;20166;-54
2022/11/28 00:39:48;;;;;;;3.90;3.60;;;4.20;99.90;;;;;;5031347;28;20163;-52
2022/11/28 00:42:15;;;;;;;3.90;3.60;;;4.30;99.90;;;;;;5031537;28;20174;-54
2022/11/28 00:44:41;;;;;;;3.43;3.13;;;4.50;99.90;;;;;;5024457;28;20192;-53
2022/11/28 00:47:06;;;;;;;3.77;3.30;;;4.50;99.90;;;;;;5011440;28;20168;-56
2022/11/28 00:49:32;;;;;;;3.90;3.50;;;4.40;99.90;;;;;;5011990;28;20570;-55
2022/11/28 00:51:57;;;;;;;3.70;3.40;;;4.40;99.90;;;;;;5010881;28;20160;-53
2022/11/28 00:54:23;;;;;;;4.03;3.63;;;4.40;99.90;;;;;;5011268;28;20189;-53
2022/11/28 00:56:48;;;;;;;4.37;3.70;;;4.50;99.90;;;;;;5011453;28;20616;-53
2022/11/28 00:59:14;;;;;;;4.20;3.80;;;4.50;99.90;;;;;;5011808;28;20517;-55
2022/11/28 01:01:42;;;;;;;3.73;3.43;;;4.50;99.90;;;;;;5011756;28;20556;-53
2022/11/28 01:04:10;;;;;;;3.90;3.60;;;4.40;99.90;;;;;;5010723;28;20590;-53
2022/11/28 01:06:39;;;;;;;3.90;3.50;;;4.40;99.90;;;;;;5010743;28;20568;-55
2022/11/28 01:09:12;;;;;;;3.93;3.63;;;4.40;99.90;;;;;;5011480;28;20244;-54
2022/11/28 01:11:39;;;;;;;3.87;3.57;;;4.30;99.90;;;;;;5011797;28;20173;-53
2022/11/28 01:14:06;;;;;;;3.80;3.50;;;4.50;99.90;;;;;;5011287;28;20176;-52
2022/11/28 01:16:32;;;;;;;3.70;3.40;;;4.40;99.90;;;;;;5011602;28;20207;-52
2022/11/28 01:18:58;;;;;;;6.20;3.70;;;4.50;99.90;;;;;;5011564;28;20172;-54
2022/11/28 01:21:23;;;;;;;3.60;3.30;;;4.50;99.90;;;;;;5011481;28;20161;-53
2022/11/28 01:23:49;;;;;;;5.60;4.80;;;4.50;99.90;;;;;;5011047;28;20160;-52
2022/11/28 01:26:21;;;;;;;5.17;4.67;;;4.50;99.90;;;;;;5011381;28;20283;-53
2022/11/28 01:28:47;;;;;;;4.90;4.40;;;4.50;99.90;;;;;;5011573;28;20179;-54
2022/11/28 01:31:15;;;;;;;5.13;4.20;;;4.50;99.90;;;;;;5011323;28;20172;-56
2022/11/28 01:33:41;;;;;;;4.63;4.17;;;4.50;99.90;;;;;;5011284;28;20187;-53
2022/11/28 01:36:08;;;;;;;5.00;4.10;;;4.50;99.90;;;;;;5010919;28;20219;-53
2022/11/28 01:38:34;;;;;;;5.77;4.20;;;;;;;;;;5011183;28;20157;-56
2022/11/28 01:41:00;;;;;;;4.20;3.60;;;4.50;99.90;;;;;;5011286;28;20242;-54
2022/11/28 01:43:26;;;;;;;4.43;4.03;;;4.40;99.90;;;;;;5011621;28;20613;-52
2022/11/28 01:45:52;;;;;;;4.33;3.93;;;4.20;99.90;;;;;;5009452;28;20185;-54
2022/11/28 01:48:35;;;;;;;4.57;4.10;;;4.50;99.90;;;;;;5011345;28;20252;-56
2022/11/28 01:51:05;;;;;;;4.23;3.80;;;4.50;99.90;;;;;;5010875;28;20263;-55
2022/11/28 01:53:33;;;;;;;4.20;3.80;;;4.50;99.90;;;;;;5011442;28;20168;-53
2022/11/28 01:56:07;;;;;;;4.50;4.10;;;4.40;99.90;;;;;;5011089;28;20283;-52
2022/11/28 01:58:37;;;;;;;4.47;4.07;;;4.40;99.90;;;;;;5011225;28;20316;-53
2022/11/28 02:01:03;;;;;;;4.87;4.20;;;4.50;99.90;;;;;;5011246;28;20161;-57
2022/11/28 02:03:36;;;;;;;4.20;3.80;;;4.50;99.90;;;;;;5010880;28;20230;-54
2022/11/28 02:06:02;;;;;;;4.30;3.90;;;4.40;99.90;;;;;;5013220;28;20215;-55
2022/11/28 02:08:34;;;;;;;4.57;4.17;;;4.40;99.90;;;;;;5014237;28;20252;-54
2022/11/28 02:11:41;;;;;;;4.30;3.90;;;4.30;99.90;;;;;;5013816;28;20536;-54
2022/11/28 02:14:44;;;;;;;5.03;3.90;;;4.50;99.90;;;;;;5014019;28;20403;-53
2022/11/28 02:17:31;;;;;;;4.10;3.70;;;4.50;99.90;;;;;;5014464;28;20208;-55
2022/11/28 02:20:45;;;;;;;5.07;4.60;;;4.40;99.90;;;;;;5014322;28;20168;-55
2022/11/28 02:23:25;;;;;;;6.87;4.57;;;4.40;99.90;;;;;;4953665;29;20205;-55
2022/11/28 02:26:05;;;;;;;4.73;4.33;;;4.20;99.90;;;;;;4953310;28;20438;-55
2022/11/28 02:28:43;;;;;;;5.67;4.57;;;4.10;99.90;;;;;;4953691;29;20534;-54
2022/11/28 02:31:52;;;;;;;5.63;5.13;;;4.10;99.90;;;;;;4953888;29;20663;-53
2022/11/28 02:34:49;;;;;;;4.77;4.20;;;3.90;99.90;;;;;;4876995;29;20433;-57
2022/11/28 02:37:26;;;;;;;4.30;3.90;;;3.90;99.90;;;;;;4877222;29;20316;-55
2022/11/28 02:39:59;;;;;;;4.97;4.03;;;3.90;99.90;;;;;;4877548;29;20414;-55
2022/11/28 02:42:44;;;;;;;4.80;4.30;;;3.90;99.90;;;;;;4877942;29;20448;-53
2022/11/28 02:45:16;;;;;;;4.90;4.40;;;3.80;99.90;;;;;;4877122;29;20279;-54
2022/11/28 02:47:51;;;;;;;4.73;3.90;;;3.80;99.90;;;;;;4877705;29;21137;-57
2022/11/28 02:50:31;;;;;;;4.33;3.90;;;3.60;99.90;;;;;;4877482;29;20419;-55
2022/11/28 02:53:05;;;;;;;26.13;4.53;;;3.40;99.90;;;;;;4877551;29;20185;-54
2022/11/28 02:55:31;;;;;;;10.03;4.50;;;3.10;99.90;;;;;;4877411;29;20472;-56
2022/11/28 02:57:56;;;;;;;4.77;4.37;;;2.80;99.90;;;;;;4878103;29;20414;-54
2022/11/28 03:00:29;;;;;;;7.43;4.37;;;2.90;99.90;;;;;;4950786;29;20179;-55
2022/11/28 03:03:00;;;;;;;4.87;4.37;;;2.90;99.90;;;;;;4954165;29;20170;-54
2022/11/28 03:05:44;;;;;;;5.00;4.40;;;3.00;99.90;;;;;;4952695;28;20198;-57
2022/11/28 03:08:16;;;;;;;5.40;4.43;;;3.20;99.90;;;;;;4937507;29;20516;-56
2022/11/28 03:10:58;;;;;;;5.37;4.87;;;3.40;99.90;;;;;;4980415;28;20403;-55
2022/11/28 03:13:35;;;;;;;5.07;4.53;;;3.60;99.90;;;;;;5013297;28;20403;-56
2022/11/28 03:16:33;;;;;;;6.93;4.53;;;3.60;99.90;;;;;;5013220;28;20454;-55
2022/11/28 03:19:03;;;;;;;5.10;4.60;;;3.40;99.90;;;;;;5013421;28;20534;-55
2022/11/28 03:21:29;;;;;;;5.10;4.60;;;3.50;99.90;;;;;;5012649;28;20690;-54
2022/11/28 03:24:00;;;;;;;5.70;5.10;;;3.60;99.90;;;;;;5012659;28;20502;-57
2022/11/28 03:26:31;;;;;;;5.63;4.80;;;3.70;99.90;;;;;;5013255;28;20248;-53
2022/11/28 03:29:25;;;;;;;4.90;4.47;;;3.80;99.90;;;;;;5012837;28;20411;-56
2022/11/28 03:31:56;;;;;;;4.83;4.40;;;3.90;99.90;;;;;;5013310;28;20748;-58
2022/11/28 03:34:26;;;;;;;4.97;4.47;;;3.80;99.90;;;;;;5012449;28;20228;-57
2022/11/28 03:37:20;;;;;;;4.90;4.40;;;3.70;99.90;;;;;;5012858;28;20553;-57
2022/11/28 03:39:52;;;;;;;5.13;4.63;;;3.80;99.90;;;;;;5007052;28;20561;-56
2022/11/28 03:42:24;;;;;;;5.17;4.60;;;3.90;99.90;;;;;;5013050;28;20168;-57
2022/11/28 03:44:57;;;;;;;5.17;4.67;;;4.00;99.90;;;;;;5012378;28;20184;-57
2022/11/28 03:47:27;;;;;;;4.90;4.40;;;4.10;99.90;;;;;;5012965;28;20168;-56
2022/11/28 03:49:55;;;;;;;4.70;4.30;;;4.00;99.90;;;;;;5012838;28;20161;-54
2022/11/28 03:52:27;;;;;;;5.10;4.60;;;4.30;99.90;;;;;;5011855;28;20226;-54
2022/11/28 03:54:59;;;;;;;5.40;4.90;;;4.40;99.90;;;;;;5012504;28;20185;-56
2022/11/28 03:57:34;;;;;;;4.60;4.13;;;4.40;99.90;;;;;;5012497;28;20593;-58
2022/11/28 04:00:04;;;;;;;5.00;4.57;;;4.40;99.90;;;;;;5012822;28;20594;-57
2022/11/28 04:02:42;;;;;;;4.93;4.40;;;4.50;99.90;;;;;;5012224;28;20534;-58
2022/11/28 04:05:21;;;;;;;4.83;4.33;;;4.50;99.90;;;;;;5012224;28;20187;-55
2022/11/28 04:07:52;;;;;;;4.47;4.07;;;4.60;99.90;;;;;;5011603;28;20168;-56
2022/11/28 04:10:34;;;;;;;4.37;3.97;;;4.50;99.90;;;;;;5011667;28;20255;-55
2022/11/28 04:13:27;;;;;;;4.60;4.20;;;4.20;99.90;;;;;;5012187;28;20172;-55
2022/11/28 04:16:30;;;;;;;4.80;4.30;;;3.90;99.90;;;;;;5012178;28;20199;-58
2022/11/28 04:19:05;;;;;;;5.40;4.90;;;3.70;99.90;;;;;;5012161;28;20207;-58
2022/11/28 04:21:43;;;;;;;4.87;4.37;;;3.70;99.90;;;;;;5011503;28;20248;-57
2022/11/28 04:24:18;;;;;;;5.27;4.77;;;4.00;99.90;;;;;;5010759;28;20177;-58
2022/11/28 04:26:58;;;;;;;4.63;4.23;;;4.00;99.90;;;;;;5009532;28;20191;-56
2022/11/28 04:29:26;;;;;;;5.13;4.63;;;4.00;99.90;;;;;;5010206;28;20172;-57
2022/11/28 04:31:54;;;;;;;6.23;5.00;;;4.00;99.90;;;;;;5012156;28;20598;-55
2022/11/28 04:34:22;;;;;;;4.27;3.87;;;3.80;99.90;;;;;;5011293;28;20580;-58
2022/11/28 04:36:50;;;;;;;3.97;3.63;;;3.50;99.90;;;;;;5011777;28;20218;-57
2022/11/28 04:39:20;;;;;;;4.20;3.90;;;3.60;99.90;;;;;;5011750;28;20172;-56
2022/11/28 04:41:53;;;;;;;4.80;4.23;;;3.70;99.90;;;;;;5011955;28;20180;-55
2022/11/28 04:44:50;;;;;;;4.80;4.30;;;3.80;99.90;;;;;;5011618;28;20196;-58
2022/11/28 04:47:16;;;;;;;5.10;4.60;;;3.90;99.90;;;;;;5012049;28;20276;-56
2022/11/28 04:49:42;;;;;;;4.83;4.20;;;3.90;99.90;;;;;;5011915;28;20477;-57
2022/11/28 04:52:45;;;;;;;4.53;4.10;;;3.50;99.90;;;;;;5011106;28;20177;-56
2022/11/28 04:55:49;;;;;;;4.40;4.00;;;3.90;99.90;;;;;;5011409;28;20188;-57
2022/11/28 04:58:24;;;;;;;4.70;4.30;;;3.70;99.90;;;;;;4970474;28;20321;-57
2022/11/28 05:00:53;;;;;;;5.60;4.60;;;3.90;99.90;;;;;;4970147;28;20424;-54
2022/11/28 05:03:19;;;;;;;4.30;3.90;;;3.80;99.90;;;;;;4954588;28;20256;-57
2022/11/28 05:05:48;;;;;;;4.80;4.20;;;3.70;99.90;;;;;;4969887;28;20198;-54
2022/11/28 05:08:14;;;;;;;10.87;7.40;;;;;;;;;;4969695;28;20182;-58
2022/11/28 05:10:40;;;;;;;10.23;8.07;;;3.90;99.90;;;;;;4970339;28;20185;-55
2022/11/28 05:13:06;;;;;;;23.40;10.07;;;4.10;99.90;;;;;;4970100;28;20186;-53
2022/11/28 05:15:32;;;;;;;12.00;8.90;;;3.80;99.90;;;;;;4969941;28;20229;-58
2022/11/28 05:17:58;;;;;;;13.13;9.27;;;4.00;99.90;;;;;;4970138;28;20193;-54
2022/11/28 05:20:24;;;;;;;11.00;7.80;;;;;;;;;;4969820;28;20186;-54
2022/11/28 05:22:50;;;;;;;11.83;7.57;;;;;;;;;;4969949;28;20182;-57
2022/11/28 05:25:16;;;;;;;68.83;11.80;;;;;;;;;;4969821;28;20209;-58
2022/11/28 05:27:42;;;;;;;16.80;9.73;;;3.10;99.90;;;;;;4970001;28;20186;-53
2022/11/28 05:30:09;;;;;;;26.63;9.50;;;2.90;99.90;;;;;;4970120;28;20244;-54
2022/11/28 05:32:35;;;;;;;16.17;9.20;;;2.90;99.90;;;;;;4971642;28;20178;-57
2022/11/28 05:35:01;;;;;;;30.37;9.63;;;2.70;99.90;;;;;;5010632;28;20206;-57
2022/11/28 05:37:27;;;;;;;120.17;18.07;;;2.70;99.90;;;;;;5011179;28;20613;-56
2022/11/28 05:39:52;;;;;;;138.60;17.83;;;2.80;99.90;;;;;;5011771;28;20226;-56
2022/11/28 05:42:18;;;;;;;70.67;15.07;;;2.80;99.90;;;;;;5015208;28;20184;-54
2022/11/28 05:44:44;;;;;;;31.90;10.93;;;;;;;;;;5014673;28;20653;-54
2022/11/28 05:47:10;;;;;;;19.43;11.33;;;3.10;99.90;;;;;;5015300;28;20176;-56
2022/11/28 05:49:36;;;;;;;29.37;11.47;;;;;;;;;;5014964;28;20883;-57
2022/11/28 05:52:01;;;;;;;21.87;11.10;;;3.30;99.90;;;;;;5014275;28;20180;-56
2022/11/28 05:54:27;;;;;;;13.70;10.20;;;3.50;99.90;;;;;;5014604;28;20204;-57
2022/11/28 05:56:53;;;;;;;14.60;11.70;;;3.30;99.90;;;;;;5014482;28;20619;-57
2022/11/28 05:59:18;;;;;;;18.27;11.90;;;3.30;99.90;;;;;;5014790;28;20227;-58
2022/11/28 06:01:44;;;;;;;23.87;11.87;;;3.20;99.90;;;;;;5014853;28;20165;-53
2022/11/28 06:04:09;;;;;;;50.10;13.53;;;3.20;99.90;;;;;;5014638;28;20207;-55
2022/11/28 06:06:35;;;;;;;14.80;11.43;;;3.10;99.90;;;;;;5014449;28;20220;-55
2022/11/28 06:09:01;;;;;;;35.13;13.37;;;3.10;99.90;;;;;;5015345;28;20182;-54
2022/11/28 06:11:29;;;;;;;30.20;12.13;;;3.30;99.90;;;;;;5013937;28;20415;-54
2022/11/28 06:13:55;;;;;;;49.83;13.80;;;3.20;99.90;;;;;;5015310;28;20431;-57
2022/11/28 06:16:23;;;;;;;21.00;13.10;;;3.20;99.90;;;;;;5014501;28;21045;-53
2022/11/28 06:19:00;;;;;;;16.73;11.50;;;3.60;99.90;;;;;;5017397;28;20230;-55
2022/11/28 06:21:28;;;;;;;12.47;10.37;;;3.60;99.90;;;;;;5034304;28;20402;-56
2022/11/28 06:23:56;;;;;;;133.40;16.77;;;3.50;99.90;;;;;;5033427;28;20191;-53
2022/11/28 06:26:22;;;;;;;13.67;10.67;;;;;;;;;;5034623;28;20417;-53
2022/11/28 06:28:49;;;;;;;13.30;11.10;;;3.80;99.90;;;;;;5024120;28;20440;-54
2022/11/28 06:31:20;;;;;;;11.93;10.20;;;3.80;99.90;;;;;;5031416;28;20532;-54
2022/11/28 06:33:47;;;;;;;237.70;25.50;;;;;;;;;;5033674;28;20418;-56
2022/11/28 06:36:14;;;;;;;12.47;10.40;;;4.00;99.90;;;;;;5068187;23;20238;-49
2022/11/28 06:38:40;;;;;;;12.50;10.47;;;4.20;99.90;;;;;;4996237;28;20534;-46
2022/11/28 06:41:09;;;;;;;14.23;11.57;;;4.10;99.90;;;;;;5013398;28;20168;-46
2022/11/28 06:43:35;;;;;;;17.40;12.90;;;;;;;;;;5025872;28;20467;-51
2022/11/28 06:46:01;;;;;;;75.00;17.07;;;;;;;;;;5032617;28;20191;-50
2022/11/28 06:48:27;;;;;;;18.97;13.97;;;4.10;99.90;;;;;;5032889;28;20171;-48
2022/11/28 06:51:00;;;;;;;25.50;15.97;;;3.80;99.90;;;;;;5031971;28;20659;-50
2022/11/28 06:53:25;;;;;;;25.57;17.03;;;3.80;99.90;;;;;;5033278;28;20202;-49
2022/11/28 06:55:51;;;;;;;23.70;16.13;;;3.80;99.90;;;;;;5032279;28;20195;-47
2022/11/28 06:58:17;;;;;;;27.97;16.93;;;;;;;;;;5014828;28;20168;-47
2022/11/28 07:00:44;;;;;;;19.30;15.23;;;3.70;99.90;;;;;;5032012;28;20633;-51
2022/11/28 07:03:11;;;;;;;23.70;16.50;;;3.90;99.90;;;;;;5032514;28;20206;-50
2022/11/28 07:05:37;;;;;;;19.53;15.93;;;;;;;;;;5032089;28;20624;-53
2022/11/28 07:08:03;;;;;;;21.20;16.27;;;3.80;99.90;;;;;;5032097;28;20245;-49
2022/11/28 07:10:28;;;;;;;21.73;16.40;;;3.60;99.90;;;;;;5032760;28;20585;-49
2022/11/28 07:12:59;;;;;;;25.73;15.40;;;3.60;99.90;;;;;;5032227;28;20188;-51
2022/11/28 07:15:25;;;;;;;19.60;15.43;;;3.50;99.90;;;;;;5032650;28;20610;-49
2022/11/28 07:17:51;;;;;;;19.07;14.60;;;3.50;99.90;;;;;;5031714;28;20717;-51
2022/11/28 07:20:17;;;;;;;39.27;16.37;;;3.60;99.90;;;;;;5032244;28;20200;-50
2022/11/28 07:22:43;;;;;;;18.47;15.53;;;3.80;99.90;;;;;;5032580;28;20167;-49
2022/11/28 07:25:10;;;;;;;17.73;13.43;;;3.40;99.90;;;;;;5032177;28;20179;-51
2022/11/28 07:27:35;;;;;;;18.87;14.23;;;3.30;99.90;;;;;;5032589;28;20184;-49
2022/11/28 07:30:01;;;;;;;47.73;32.13;;;3.30;99.90;;;;;;5032068;28;20187;-51
2022/11/28 07:32:27;;;;;;;17.67;14.20;;;3.60;99.90;;;;;;5032128;28;20174;-49
2022/11/28 07:34:52;;;;;;;18.03;13.60;;;3.80;99.90;;;;;;5031399;28;20203;-51
2022/11/28 07:37:18;;;;;;;15.23;12.70;;;3.80;99.90;;;;;;5030878;28;20564;-51
2022/11/28 07:39:44;;;;;;;14.73;12.40;;;4.00;99.90;;;;;;5032267;28;20168;-50
2022/11/28 07:42:10;;;;;;;14.03;11.70;;;4.10;99.90;;;;;;5031675;28;20179;-52
2022/11/28 07:44:36;;;;;;;15.90;11.57;;;4.10;99.90;;;;;;5030904;28;20180;-54
2022/11/28 07:47:02;;;;;;;15.83;12.70;;;4.30;99.90;;;;;;5031539;28;20199;-53
2022/11/28 07:49:28;;;;;;;13.17;10.53;;;4.40;99.90;;;;;;5032417;28;20631;-50
2022/11/28 07:51:53;;;;;;;12.70;10.70;;;4.50;99.90;;;;;;5031710;28;20256;-52
2022/11/28 07:54:19;;;;;;;13.97;11.63;;;4.60;99.90;;;;;;5031972;28;20182;-49
2022/11/28 07:56:44;;;;;;;12.33;10.40;;;4.70;99.90;;;;;;5031822;28;20203;-49
2022/11/28 07:59:11;;;;;;;12.77;10.50;;;4.70;99.90;;;;;;5032013;28;20218;-50
2022/11/28 08:01:37;;;;;;;13.40;11.10;;;4.70;99.90;;;;;;5031902;28;20562;-50
2022/11/28 08:04:05;;;;;;;12.03;9.97;;;4.90;99.90;;;;;;5030880;28;20176;-50
2022/11/28 08:06:34;;;;;;;13.57;10.93;;;5.10;99.90;;;;;;5031004;28;20198;-50
2022/11/28 08:09:00;;;;;;;12.00;10.53;;;5.20;99.90;;;;;;5031912;28;20171;-51
2022/11/28 08:11:28;;;;;;;11.83;9.97;;;5.20;99.90;;;;;;5031823;28;20246;-53
2022/11/28 08:13:55;;;;;;;11.30;9.63;;;5.10;99.90;;;;;;5031587;28;20681;-49
2022/11/28 08:16:23;;;;;;;12.17;9.90;;;5.20;99.90;;;;;;5031615;28;20203;-50
2022/11/28 08:18:50;;;;;;;10.63;9.17;;;5.20;99.90;;;;;;5031666;28;20524;-49
2022/11/28 08:21:28;;;;;;;10.50;9.40;;;5.30;99.90;;;;;;5031391;28;20193;-48
2022/11/28 08:23:56;;;;;;;10.77;9.67;;;5.50;99.90;;;;;;5031121;28;20160;-47
2022/11/28 08:26:24;;;;;;;12.60;10.80;;;5.60;99.90;;;;;;5031504;28;20195;-50
2022/11/28 08:28:52;;;;;;;10.47;8.93;;;5.40;99.90;;;;;;5031510;28;20198;-46
2022/11/28 08:31:26;;;;;;;11.70;10.37;;;5.30;99.90;;;;;;5031590;28;20221;-50
2022/11/28 08:33:54;;;;;;;12.47;10.63;;;5.30;99.90;;;;;;5031101;28;20249;-50
2022/11/28 08:36:21;;;;;;;12.10;9.27;;;5.40;99.90;;;;;;5031018;28;20214;-50
2022/11/28 08:38:47;;;;;;;11.67;9.63;;;5.40;99.90;;;;;;5031394;28;20218;-57
2022/11/28 08:41:17;;;;;;;11.07;9.83;;;5.60;99.90;;;;;;5031452;28;20199;-50
2022/11/28 08:43:43;;;;;;;10.50;9.27;;;4.60;99.90;;;;;;5031126;28;20218;-54
2022/11/28 08:46:14;;;;;;;10.60;8.50;;;5.60;99.90;;;;;;5031274;28;20253;-52
2022/11/28 08:48:41;;;;;;;10.87;9.33;;;5.60;99.90;;;;;;5031228;28;20199;-54
2022/11/28 08:51:10;;;;;;;9.87;8.77;;;5.70;99.90;;;;;;5030959;28;20168;-53
2022/11/28 08:53:35;;;;;;;9.77;8.77;;;5.80;99.90;;;;;;5030707;28;20637;-52
2022/11/28 08:56:02;;;;;;;10.40;9.10;;;5.80;99.90;;;;;;5031007;28;20260;-53
2022/11/28 08:58:28;;;;;;;14.07;12.73;;;5.80;99.90;;;;;;5031232;28;20241;-55
2022/11/28 09:00:53;;;;;;;10.27;8.97;;;5.80;99.90;;;;;;5031241;28;20219;-50
2022/11/28 09:03:19;;;;;;;11.23;9.17;;;5.70;99.90;;;;;;5031081;28;20174;-53
2022/11/28 09:05:46;;;;;;;11.23;10.03;;;5.70;99.90;;;;;;5030658;28;20664;-51
2022/11/28 09:08:13;;;;;;;13.20;11.13;;;5.90;99.90;;;;;;5031027;28;20592;-51
2022/11/28 09:10:40;;;;;;;12.47;9.83;;;6.00;99.90;;;;;;5031055;28;20206;-48
2022/11/28 09:13:06;;;;;;;13.73;10.70;;;6.10;99.90;;;;;;5031079;28;20179;-48
2022/11/28 09:15:32;;;;;;;10.47;8.70;;;6.10;99.90;;;;;;5033961;28;20548;-48
2022/11/28 09:17:58;;;;;;;10.73;8.97;;;6.20;99.90;;;;;;5035052;28;20521;-50
2022/11/28 09:20:24;;;;;;;10.57;9.33;;;6.30;99.90;;;;;;5016884;28;20168;-47
2022/11/28 09:22:49;;;;;;;11.80;9.60;;;6.30;99.90;;;;;;5017000;28;20172;-48
2022/11/28 09:25:15;;;;;;;9.67;8.67;;;6.40;99.90;;;;;;5034694;28;20255;-53
2022/11/28 09:27:40;;;;;;;9.33;8.33;;;6.60;99.90;;;;;;5034759;28;20187;-49
2022/11/28 09:30:07;;;;;;;9.40;8.37;;;6.70;99.90;;;;;;5034965;28;20156;-49
2022/11/28 09:32:33;;;;;;;8.90;7.77;;;6.70;99.90;;;;;;5034690;28;20233;-50
2022/11/28 09:34:59;;;;;;;8.27;7.40;;;7.40;99.90;;;;;;5034450;28;20168;-52
2022/11/28 09:37:27;;;;;;;8.83;7.70;;;7.90;99.90;;;;;;5033548;28;20214;-49
2022/11/28 09:39:52;;;;;;;10.23;8.20;;;8.30;99.90;;;;;;5034718;28;20246;-52
2022/11/28 09:42:36;;;;;;;10.70;8.20;;;8.10;99.90;;;;;;5034571;28;20662;-52
2022/11/28 09:45:08;;;;;;;10.00;8.40;;;8.40;99.90;;;;;;5034414;28;20179;-47
2022/11/28 09:47:35;;;;;;;9.83;8.07;;;8.40;99.90;;;;;;5034193;28;20238;-48
2022/11/28 09:50:19;;;;;;;10.23;9.10;;;7.90;99.90;;;;;;5016725;28;20172;-48
2022/11/28 09:53:07;;;;;;;10.07;8.97;;;7.40;99.90;;;;;;5033635;28;20171;-57
2022/11/28 09:55:35;;;;;;;12.80;11.13;;;7.00;99.90;;;;;;5034136;28;20283;-50
2022/11/28 09:58:10;;;;;;;13.03;10.83;;;6.70;99.90;;;;;;5033969;28;20215;-48
2022/11/28 10:00:41;;;;;;;13.37;11.40;;;6.40;99.90;;;;;;5034496;28;20170;-49
2022/11/28 10:03:15;;;;;;;11.47;10.20;;;6.40;99.90;;;;;;5034204;28;20160;-50
2022/11/28 10:06:06;;;;;;;13.43;11.93;;;6.60;99.90;;;;;;5033635;28;20167;-49
2022/11/28 10:09:04;;;;;;;12.20;10.90;;;6.90;99.90;;;;;;5024309;28;20210;-51
2022/11/28 10:11:32;;;;;;;13.97;10.90;;;7.20;99.90;;;;;;5033567;28;20628;-51
2022/11/28 10:14:36;;;;;;;13.43;11.40;;;7.50;99.90;;;;;;5033664;28;20218;-55
2022/11/28 10:17:28;;;;;;;11.23;10.10;;;7.90;99.90;;;;;;5033665;28;20210;-48
2022/11/28 10:20:01;;;;;;;11.97;10.00;;;8.30;99.90;;;;;;5028232;28;20208;-49
2022/11/28 10:22:39;;;;;;;10.83;9.73;;;8.60;99.90;;;;;;5032551;28;20183;-55
2022/11/28 10:25:37;;;;;;;12.10;10.40;;;8.90;99.90;;;;;;5032557;28;20583;-50
2022/11/28 10:28:06;;;;;;;12.67;11.20;;;9.30;99.90;;;;;;5032913;28;20211;-49
2022/11/28 10:30:37;;;;;;;11.43;10.20;;;9.10;99.90;;;;;;5033707;28;20164;-49
2022/11/28 10:33:31;;;;;;;10.63;9.47;;;9.10;99.90;;;;;;5033774;28;20175;-52
2022/11/28 10:36:02;;;;;;;17.00;14.33;;;9.10;99.90;;;;;;5015278;28;20282;-49
2022/11/28 10:38:31;;;;;;;16.03;12.43;;;9.50;99.90;;;;;;5033224;28;20545;-49
2022/11/28 10:41:02;;;;;;;12.40;10.60;;;9.70;99.90;;;;;;5033479;28;20210;-47
2022/11/28 10:44:06;;;;;;;13.37;11.97;;;9.60;99.90;;;;;;5033482;28;20168;-47
2022/11/28 10:47:01;;;;;;;12.77;10.87;;;9.60;99.90;;;;;;4952713;29;20249;-50
2022/11/28 10:49:47;;;;;;;12.87;10.87;;;9.70;99.90;;;;;;4953067;29;20179;-53
2022/11/28 10:52:31;;;;;;;11.80;10.57;;;9.50;99.90;;;;;;4952288;29;20182;-47
2022/11/28 10:55:37;;;;;;;11.47;10.17;;;9.40;99.90;;;;;;4951887;29;20205;-53
2022/11/28 10:58:10;;;;;;;12.83;11.13;;;9.30;99.90;;;;;;4876602;29;20216;-51
2022/11/28 11:00:37;;;;;;;11.40;10.10;;;9.30;99.90;;;;;;4877120;29;20199;-47
2022/11/28 11:03:04;;;;;;;10.60;9.50;;;9.40;99.90;;;;;;4876838;29;20280;-51
2022/11/28 11:05:32;;;;;;;11.20;10.03;;;9.50;99.90;;;;;;4876414;29;20244;-49
2022/11/28 11:08:03;;;;;;;11.37;9.90;;;9.60;99.90;;;;;;4876403;29;20567;-52
2022/11/28 11:10:40;;;;;;;9.77;8.77;;;9.50;99.90;;;;;;4876736;29;20548;-51
2022/11/28 11:13:22;;;;;;;11.47;9.73;;;9.70;99.90;;;;;;4876612;29;20635;-47
2022/11/28 11:16:01;;;;;;;10.70;9.60;;;9.90;99.90;;;;;;4876327;29;20268;-48
2022/11/28 11:18:47;;;;;;;11.43;9.93;;;9.90;99.90;;;;;;4876610;29;20177;-50
2022/11/28 11:21:21;;;;;;;10.00;9.00;;;9.60;99.90;;;;;;4919697;29;20194;-48
2022/11/28 11:24:07;;;;;;;11.43;9.87;;;9.50;99.90;;;;;;4932839;29;20206;-48
2022/11/28 11:26:45;;;;;;;11.47;9.67;;;9.70;99.90;;;;;;4932856;29;20207;-50
2022/11/28 11:29:34;;;;;;;10.53;9.43;;;10.00;99.90;;;;;;4933046;29;20183;-54
2022/11/28 11:32:04;;;;;;;10.70;9.30;;;10.20;99.90;;;;;;4933124;29;20178;-49
2022/11/28 11:34:36;;;;;;;10.50;9.40;;;10.30;99.90;;;;;;4967655;28;20192;-47
2022/11/28 11:37:19;;;;;;;11.20;9.33;;;10.30;99.90;;;;;;5030969;28;20215;-54
2022/11/28 11:39:50;;;;;;;10.40;9.27;;;10.40;99.90;;;;;;5032348;28;20194;-49
2022/11/28 11:42:20;;;;;;;10.07;8.83;;;10.50;99.90;;;;;;5032389;28;20171;-47
2022/11/28 11:44:46;;;;;;;10.23;9.10;;;10.70;99.90;;;;;;5031886;28;20164;-49
2022/11/28 11:47:12;;;;;;;10.17;9.03;;;10.90;99.90;;;;;;5031954;28;20194;-48
2022/11/28 11:49:43;;;;;;;10.63;9.00;;;10.90;99.90;;;;;;5032075;28;20175;-51
2022/11/28 11:52:11;;;;;;;10.13;8.77;;;10.90;99.90;;;;;;5031746;28;20210;-52
2022/11/28 11:54:38;;;;;;;10.63;9.33;;;11.20;99.90;;;;;;5031718;28;20178;-52
2022/11/28 11:57:05;;;;;;;10.27;9.17;;;11.00;99.90;;;;;;5031872;28;20201;-51
2022/11/28 11:59:39;;;;;;;10.40;9.33;;;11.10;99.90;;;;;;5031983;28;20167;-53
2022/11/28 12:02:22;;;;;;;10.60;9.43;;;11.30;99.90;;;;;;5032171;28;20510;-50
2022/11/28 12:04:58;;;;;;;10.23;9.20;;;11.60;99.90;;;;;;5031679;28;20195;-55
2022/11/28 12:07:51;;;;;;;10.63;9.53;;;11.60;99.90;;;;;;5031858;28;20199;-55
2022/11/28 12:10:22;;;;;;;10.23;9.23;;;11.50;99.90;;;;;;5031104;28;20606;-49
2022/11/28 12:12:48;;;;;;;49.17;42.13;;;11.30;99.90;;;;;;5031953;28;20175;-50
2022/11/28 12:15:45;;;;;;;10.40;9.30;;;11.30;99.90;;;;;;5031495;28;20691;-48
2022/11/28 12:18:16;;;;;;;10.30;9.30;;;11.20;99.90;;;;;;5031559;28;20234;-47
2022/11/28 12:21:05;;;;;;;10.70;9.63;;;11.10;99.90;;;;;;5031195;28;20217;-53
2022/11/28 12:23:37;;;;;;;10.50;9.07;;;10.80;99.90;;;;;;5031640;28;20179;-52
2022/11/28 12:26:23;;;;;;;10.77;9.67;;;10.60;99.90;;;;;;5031371;28;20176;-48
2022/11/28 12:29:20;;;;;;;11.87;10.57;;;10.30;99.90;;;;;;5031720;28;20216;-47
2022/11/28 12:32:07;;;;;;;10.53;9.33;;;9.90;99.90;;;;;;5031391;28;20214;-50
2022/11/28 12:34:56;;;;;;;13.13;11.13;;;9.90;99.90;;;;;;5031294;28;20203;-52
2022/11/28 12:37:51;;;;;;;11.27;9.97;;;10.00;99.90;;;;;;5046054;23;20310;-53
2022/11/28 12:40:34;;;;;;;12.53;10.23;;;9.90;99.90;;;;;;4950442;29;20186;-55
2022/11/28 12:43:23;;;;;;;10.13;9.07;;;9.80;99.90;;;;;;4951323;29;20849;-54
2022/11/28 12:46:02;;;;;;;12.00;10.70;;;9.70;99.90;;;;;;4933269;29;20186;-56
2022/11/28 12:49:04;;;;;;;12.40;10.80;;;9.60;99.90;;;;;;4950460;28;20206;-52
2022/11/28 12:51:55;;;;;;;12.27;10.57;;;9.50;99.90;;;;;;4950976;29;20555;-53
2022/11/28 12:54:32;;;;;;;11.43;10.13;;;9.30;99.90;;;;;;4950814;29;20173;-51
2022/11/28 12:57:14;;;;;;;12.50;11.20;;;9.10;99.90;;;;;;4950966;29;20289;-53
2022/11/28 13:00:00;;;;;;;12.20;10.53;;;9.00;99.90;;;;;;4950941;29;20592;-52
2022/11/28 13:02:32;;;;;;;11.93;10.27;;;8.90;99.90;;;;;;4951309;29;20178;-53
2022/11/28 13:05:16;;;;;;;12.17;10.87;;;9.00;99.90;;;;;;4950597;29;20190;-55
2022/11/28 13:08:09;;;;;;;12.40;11.03;;;8.80;99.90;;;;;;4950503;29;20198;-55
2022/11/28 13:10:48;;;;;;;13.43;11.70;;;8.60;99.90;;;;;;4949937;29;20243;-56
2022/11/28 13:13:31;;;;;;;12.23;10.30;;;6.90;99.90;;;;;;4951226;29;20173;-52
2022/11/28 13:16:10;;;;;;;13.07;11.70;;;8.80;99.90;;;;;;4934102;29;20299;-50
2022/11/28 13:18:41;;;;;;;12.57;11.00;;;9.40;99.90;;;;;;5021173;28;20597;-56